Galena Park, Texas
Current Conditions -  °F | °C
As of 9:53 PM on Tuesday 21 Oct 2014 (Local Time) from KHOU Reporting Station
Few Clouds Few Clouds  
Wind Chill: 69°   Ceiling: Unl
Heat Index: 69°   Visibility: 10mi
Dew Point: 59°   Wind: 0mph
Humidity: 70%   Direction: NA
Pressure: 30.03"   Gusts: NA
Location:  29.73°N, 95.24°W
Report Text: KHOU 220253Z 00000KT 10SM FEW250 21/15 A3003 RMK AO2 SLP174 T02060150 52017
Loading
Personal Weather Stations






























Interactive Weather Map
Tropical Storm Tracking
New forecast layout! Learn more

10-Day Weather Forecast

Advertisements
Track Severe Weather on mobile